createdAt,value
2022-10-17T00:05:05.308Z,14.70
2022-10-17T00:11:47.638Z,14.95
2022-10-17T00:18:30.021Z,5.80
2022-10-17T00:25:12.480Z,13.60
2022-10-17T00:31:56.598Z,7.10
2022-10-17T00:38:40.191Z,9.90
2022-10-17T00:45:32.780Z,7.97
2022-10-17T00:52:20.372Z,10.85
2022-10-17T00:59:03.403Z,11.75
2022-10-17T01:05:46.640Z,14.18
2022-10-17T01:12:48.058Z,9.35
2022-10-17T01:20:18.513Z,15.45
2022-10-17T01:27:25.761Z,11.82
2022-10-17T01:34:15.378Z,7.95
2022-10-17T01:41:07.681Z,17.45
2022-10-17T01:47:52.174Z,10.43
2022-10-17T01:54:42.481Z,11.48
2022-10-17T02:01:28.399Z,12.95
2022-10-17T02:08:11.294Z,13.43
2022-10-17T02:15:25.714Z,12.32
2022-10-17T02:22:20.073Z,14.15
2022-10-17T02:29:16.920Z,13.27
2022-10-17T02:36:06.082Z,10.75
2022-10-17T02:42:51.076Z,17.42
2022-10-17T02:49:39.309Z,12.43
2022-10-17T02:56:22.341Z,11.82
2022-10-17T03:03:29.700Z,10.95
2022-10-17T03:10:16.530Z,19.83
2022-10-17T03:16:59.116Z,13.07
2022-10-17T03:23:42.480Z,13.98
2022-10-17T03:30:25.220Z,12.10
2022-10-17T03:37:07.630Z,18.05
2022-10-17T03:43:54.020Z,11.02
2022-10-17T03:50:37.079Z,10.27
2022-10-17T03:57:20.059Z,11.90
2022-10-17T04:04:02.941Z,12.75
2022-10-17T04:10:48.065Z,11.77
2022-10-17T04:17:35.902Z,11.20
2022-10-17T04:24:21.218Z,15.18
2022-10-17T04:31:13.660Z,17.48
2022-10-17T04:38:15.684Z,13.68
2022-10-17T04:45:01.062Z,19.67
2022-10-17T04:51:43.812Z,10.10
2022-10-17T04:58:32.989Z,12.35
2022-10-17T05:05:16.236Z,14.85
2022-10-17T05:12:00.980Z,12.80
2022-10-17T05:18:52.808Z,15.85
2022-10-17T05:25:35.712Z,9.48
2022-10-17T05:32:18.167Z,16.13
2022-10-17T05:39:01.577Z,15.77
2022-10-17T05:45:44.999Z,15.73
2022-10-17T05:52:33.300Z,15.95
2022-10-17T05:59:25.172Z,14.93
2022-10-17T06:06:14.585Z,16.77
2022-10-17T06:12:59.758Z,9.95
2022-10-17T06:19:45.078Z,14.23
2022-10-17T06:26:29.660Z,13.00
2022-10-17T06:33:12.568Z,21.15
2022-10-17T06:39:54.999Z,10.50
2022-10-17T06:46:40.056Z,14.05
2022-10-17T06:53:25.005Z,11.00
2022-10-17T07:00:23.309Z,18.35
2022-10-17T07:07:09.456Z,11.65
2022-10-17T07:13:52.563Z,9.32
2022-10-17T07:20:36.032Z,11.57
2022-10-17T07:27:18.703Z,8.60
2022-10-17T07:34:02.508Z,8.07
2022-10-17T07:40:45.733Z,13.02
2022-10-17T07:47:31.288Z,6.72
2022-10-17T07:54:15.288Z,7.45
2022-10-17T08:01:05.966Z,8.27
2022-10-17T08:07:49.807Z,6.00
2022-10-17T08:14:32.134Z,8.43
2022-10-17T08:21:14.499Z,7.00
2022-10-17T08:27:58.093Z,2.45
2022-10-17T08:34:40.460Z,4.57
2022-10-17T08:41:44.515Z,7.80
2022-10-17T08:48:29.843Z,10.10
2022-10-17T08:55:37.883Z,6.05
2022-10-17T09:02:31.369Z,5.22
2022-10-17T09:09:53.132Z,6.65
2022-10-17T09:17:13.260Z,3.47
2022-10-17T09:24:09.660Z,6.63
2022-10-17T09:31:21.803Z,5.85
2022-10-17T09:38:04.935Z,10.65
2022-10-17T09:45:14.410Z,8.55
2022-10-17T09:51:57.145Z,4.65
2022-10-17T09:58:55.768Z,9.77
2022-10-17T10:05:38.416Z,7.82
2022-10-17T10:12:33.206Z,5.43
2022-10-17T10:19:49.412Z,7.03
2022-10-17T10:26:47.477Z,9.65
2022-10-17T10:33:31.900Z,6.57
2022-10-17T10:40:25.174Z,5.53
2022-10-17T10:47:20.613Z,8.15
2022-10-17T10:54:16.205Z,6.15
2022-10-17T11:01:04.559Z,5.00
2022-10-17T11:08:03.938Z,6.35
2022-10-17T11:15:25.159Z,6.05
2022-10-17T11:22:36.527Z,6.43
2022-10-17T11:29:19.390Z,4.43
2022-10-17T11:36:05.644Z,9.10
2022-10-17T11:43:03.775Z,6.05
2022-10-17T11:49:52.233Z,4.80
2022-10-17T11:56:42.690Z,9.13
2022-10-17T12:04:08.114Z,10.25
2022-10-17T12:10:59.727Z,7.38
2022-10-17T12:17:46.805Z,5.47
2022-10-17T12:24:36.290Z,7.10
2022-10-17T12:31:19.781Z,6.90
2022-10-17T12:38:16.166Z,7.78
2022-10-17T12:44:58.551Z,4.68
2022-10-17T12:52:15.059Z,4.25
2022-10-17T12:58:59.706Z,4.38
2022-10-17T13:05:47.837Z,4.90
2022-10-17T13:12:32.333Z,4.60
2022-10-17T13:19:16.974Z,2.75
2022-10-17T13:26:09.823Z,6.50
2022-10-17T13:32:52.567Z,5.07
2022-10-17T13:39:58.014Z,8.70
2022-10-17T13:46:44.028Z,6.80
2022-10-17T13:53:34.707Z,6.13
2022-10-17T14:00:19.585Z,6.25
2022-10-17T14:07:02.667Z,4.60
2022-10-17T14:13:50.069Z,5.75
2022-10-17T14:21:19.415Z,5.38
2022-10-17T14:27:52.429Z,4.22
2022-10-17T14:34:37.288Z,5.70
2022-10-17T14:41:43.567Z,3.88
2022-10-17T14:48:28.578Z,6.47
2022-10-17T14:55:25.435Z,3.25
2022-10-17T15:02:09.380Z,6.47
2022-10-17T15:08:51.690Z,4.70
2022-10-17T15:15:34.576Z,3.83
2022-10-17T15:22:18.066Z,4.32
2022-10-17T15:29:00.939Z,4.50
2022-10-17T15:35:43.706Z,4.50
2022-10-17T15:42:29.412Z,7.60
2022-10-17T15:49:14.455Z,6.63
2022-10-17T15:55:57.840Z,3.50
2022-10-17T16:02:40.195Z,5.07
2022-10-17T16:09:22.515Z,9.82
2022-10-17T16:16:04.971Z,6.15
2022-10-17T16:22:48.166Z,8.82
2022-10-17T16:29:30.496Z,7.78
2022-10-17T16:36:12.931Z,10.20
2022-10-17T16:42:55.251Z,9.43
2022-10-17T16:49:40.439Z,11.00
2022-10-17T16:56:32.498Z,10.85
2022-10-17T17:03:14.839Z,7.57
2022-10-17T17:09:57.159Z,13.90
2022-10-17T17:16:39.532Z,14.13
2022-10-17T17:23:21.874Z,8.23
2022-10-17T17:30:04.515Z,7.28
2022-10-17T17:36:47.093Z,13.93
2022-10-17T17:43:29.934Z,10.23
2022-10-17T17:50:12.567Z,11.02
2022-10-17T17:56:54.946Z,8.07
2022-10-17T18:03:39.477Z,9.40
2022-10-17T18:10:22.326Z,10.10
2022-10-17T18:17:04.780Z,9.55
2022-10-17T18:23:48.520Z,17.60
2022-10-17T18:30:33.756Z,12.93
2022-10-17T18:37:16.969Z,8.73
2022-10-17T18:43:59.749Z,12.38
2022-10-17T18:50:42.387Z,10.13
2022-10-17T18:57:26.217Z,9.90
2022-10-17T19:04:09.259Z,15.35
2022-10-17T19:10:51.739Z,10.70
2022-10-17T19:17:34.041Z,10.60
2022-10-17T19:24:23.308Z,13.40
2022-10-17T19:31:06.443Z,12.15
2022-10-17T19:37:48.908Z,12.57
2022-10-17T19:44:41.795Z,13.65
2022-10-17T19:51:25.265Z,11.52
2022-10-17T19:58:08.015Z,12.40
2022-10-17T20:05:00.040Z,12.13
2022-10-17T20:11:49.915Z,11.93
2022-10-17T20:18:32.416Z,14.23
2022-10-17T20:25:14.929Z,12.20
2022-10-17T20:31:57.626Z,13.02
2022-10-17T20:38:40.673Z,13.50
2022-10-17T20:45:37.419Z,11.60
2022-10-17T20:52:25.688Z,9.98
2022-10-17T20:59:12.257Z,14.35
2022-10-17T21:05:54.592Z,10.40
2022-10-17T21:12:53.109Z,13.27
2022-10-17T21:19:41.397Z,10.60
2022-10-17T21:26:25.468Z,12.50
2022-10-17T21:33:07.854Z,19.98
2022-10-17T21:39:50.192Z,15.63
2022-10-17T21:46:33.347Z,15.18
2022-10-17T21:53:15.637Z,12.30
2022-10-17T21:59:57.989Z,13.25
2022-10-17T22:06:42.347Z,16.10
2022-10-17T22:13:24.719Z,12.70
2022-10-17T22:20:07.403Z,19.27
2022-10-17T22:26:50.193Z,16.83
2022-10-17T22:33:33.480Z,22.50
2022-10-17T22:40:15.921Z,13.90
2022-10-17T22:46:58.263Z,21.05
2022-10-17T22:53:40.847Z,15.65
2022-10-17T23:00:23.266Z,15.77
2022-10-17T23:07:11.134Z,16.42
2022-10-17T23:13:53.455Z,13.80
2022-10-17T23:20:36.515Z,20.58
2022-10-17T23:27:19.112Z,18.80
2022-10-17T23:34:01.472Z,12.55
2022-10-17T23:40:44.216Z,16.38
2022-10-17T23:47:26.793Z,15.95
2022-10-17T23:54:09.155Z,18.40
